Temperatuur

Neerslag

Windstoten

Onweer

Weermodellen

Vliegweer

[Source: ADDS]
METAR
EBBR 221420Z 24015KT 210V280 CAVOK 26/14 Q1010 NOSIG =
TAF
EBBR 221103Z 2212/2318 23011KT 9999 FEW045CB PROB30 TEMPO 2215/2302 VRB15G25KT 4000 SHRA -TSRA PROB40 TEMPO 2302/2305 BKN014 =

StormCell wordt gesponsord door StreamFM - The Ultimate Party Station